sensor_id;sensor_type;location;lat;lon;timestamp;temperature;humidity
25991;DHT22;13779;-33.886;151.198;2024-03-02T00:00:23;25.10;99.90
25991;DHT22;13779;-33.886;151.198;2024-03-02T00:02:55;24.90;99.90
25991;DHT22;13779;-33.886;151.198;2024-03-02T00:05:26;24.80;99.90
25991;DHT22;13779;-33.886;151.198;2024-03-02T00:08:00;24.80;99.90
25991;DHT22;13779;-33.886;151.198;2024-03-02T00:10:37;24.80;99.90
25991;DHT22;13779;-33.886;151.198;2024-03-02T00:13:13;24.70;99.90
25991;DHT22;13779;-33.886;151.198;2024-03-02T00:15:51;24.60;99.90
25991;DHT22;13779;-33.886;151.198;2024-03-02T00:18:26;24.70;99.90
25991;DHT22;13779;-33.886;151.198;2024-03-02T00:20:58;24.70;99.90
25991;DHT22;13779;-33.886;151.198;2024-03-02T00:23:31;24.70;99.90
25991;DHT22;13779;-33.886;151.198;2024-03-02T00:26:02;24.60;99.90
25991;DHT22;13779;-33.886;151.198;2024-03-02T00:28:33;24.60;99.90
25991;DHT22;13779;-33.886;151.198;2024-03-02T00:31:07;24.50;99.90
25991;DHT22;13779;-33.886;151.198;2024-03-02T00:33:42;24.50;99.90
25991;DHT22;13779;-33.886;151.198;2024-03-02T00:36:15;24.50;99.90
25991;DHT22;13779;-33.886;151.198;2024-03-02T00:38:51;24.50;99.90
25991;DHT22;13779;-33.886;151.198;2024-03-02T00:41:30;24.50;99.90
25991;DHT22;13779;-33.886;151.198;2024-03-02T00:44:03;24.50;99.90
25991;DHT22;13779;-33.886;151.198;2024-03-02T00:46:39;24.50;99.90
25991;DHT22;13779;-33.886;151.198;2024-03-02T00:51:50;24.50;99.90
25991;DHT22;13779;-33.886;151.198;2024-03-02T00:54:23;24.50;99.90
25991;DHT22;13779;-33.886;151.198;2024-03-02T00:56:55;24.50;99.90
25991;DHT22;13779;-33.886;151.198;2024-03-02T00:59:26;24.50;99.90
25991;DHT22;13779;-33.886;151.198;2024-03-02T01:01:56;24.50;99.90
25991;DHT22;13779;-33.886;151.198;2024-03-02T01:04:26;24.50;99.90
25991;DHT22;13779;-33.886;151.198;2024-03-02T01:06:57;24.50;99.90
25991;DHT22;13779;-33.886;151.198;2024-03-02T01:09:28;24.60;99.90
25991;DHT22;13779;-33.886;151.198;2024-03-02T01:11:58;24.50;99.90
25991;DHT22;13779;-33.886;151.198;2024-03-02T01:14:28;24.50;99.90
25991;DHT22;13779;-33.886;151.198;2024-03-02T01:16:59;24.50;99.90
25991;DHT22;13779;-33.886;151.198;2024-03-02T01:19:29;24.60;99.90
25991;DHT22;13779;-33.886;151.198;2024-03-02T01:21:59;24.50;99.90
25991;DHT22;13779;-33.886;151.198;2024-03-02T01:24:30;24.50;99.90
25991;DHT22;13779;-33.886;151.198;2024-03-02T01:27:00;24.50;99.90
25991;DHT22;13779;-33.886;151.198;2024-03-02T01:29:30;24.50;99.90
25991;DHT22;13779;-33.886;151.198;2024-03-02T01:32:02;24.50;99.90
25991;DHT22;13779;-33.886;151.198;2024-03-02T01:34:32;24.40;99.90
25991;DHT22;13779;-33.886;151.198;2024-03-02T01:37:02;24.40;99.90
25991;DHT22;13779;-33.886;151.198;2024-03-02T01:39:33;24.40;99.90
25991;DHT22;13779;-33.886;151.198;2024-03-02T01:42:03;24.40;99.90
25991;DHT22;13779;-33.886;151.198;2024-03-02T01:44:33;24.40;99.90
25991;DHT22;13779;-33.886;151.198;2024-03-02T01:47:03;24.30;99.90
25991;DHT22;13779;-33.886;151.198;2024-03-02T01:49:34;24.30;99.90
25991;DHT22;13779;-33.886;151.198;2024-03-02T01:52:05;24.30;99.90
25991;DHT22;13779;-33.886;151.198;2024-03-02T01:54:35;24.40;99.90
25991;DHT22;13779;-33.886;151.198;2024-03-02T01:57:05;24.40;99.90
25991;DHT22;13779;-33.886;151.198;2024-03-02T01:59:36;24.40;99.90
25991;DHT22;13779;-33.886;151.198;2024-03-02T02:02:06;24.30;99.90
25991;DHT22;13779;-33.886;151.198;2024-03-02T02:04:36;24.40;99.90
25991;DHT22;13779;-33.886;151.198;2024-03-02T02:07:07;24.30;99.90
25991;DHT22;13779;-33.886;151.198;2024-03-02T02:09:37;24.40;99.90
25991;DHT22;13779;-33.886;151.198;2024-03-02T02:12:07;24.30;99.90
25991;DHT22;13779;-33.886;151.198;2024-03-02T02:14:38;24.30;99.90
25991;DHT22;13779;-33.886;151.198;2024-03-02T02:17:09;24.30;99.90
25991;DHT22;13779;-33.886;151.198;2024-03-02T02:19:41;24.30;99.90
25991;DHT22;13779;-33.886;151.198;2024-03-02T02:22:11;24.30;99.90
25991;DHT22;13779;-33.886;151.198;2024-03-02T02:24:42;24.20;99.90
25991;DHT22;13779;-33.886;151.198;2024-03-02T02:27:12;24.20;99.90
25991;DHT22;13779;-33.886;151.198;2024-03-02T02:29:44;24.20;99.90
25991;DHT22;13779;-33.886;151.198;2024-03-02T02:32:15;24.20;99.90
25991;DHT22;13779;-33.886;151.198;2024-03-02T02:34:45;24.30;99.90
25991;DHT22;13779;-33.886;151.198;2024-03-02T02:37:15;24.30;99.90
25991;DHT22;13779;-33.886;151.198;2024-03-02T02:39:45;24.30;99.90
25991;DHT22;13779;-33.886;151.198;2024-03-02T02:42:16;24.20;99.90
25991;DHT22;13779;-33.886;151.198;2024-03-02T02:44:46;24.10;99.90
25991;DHT22;13779;-33.886;151.198;2024-03-02T02:47:17;24.10;99.90
25991;DHT22;13779;-33.886;151.198;2024-03-02T02:49:48;24.10;99.90
25991;DHT22;13779;-33.886;151.198;2024-03-02T02:52:18;24.00;99.90
25991;DHT22;13779;-33.886;151.198;2024-03-02T02:54:51;24.00;99.90
25991;DHT22;13779;-33.886;151.198;2024-03-02T02:57:22;23.90;99.90
25991;DHT22;13779;-33.886;151.198;2024-03-02T02:59:52;23.90;99.90
25991;DHT22;13779;-33.886;151.198;2024-03-02T03:02:23;23.80;99.90
25991;DHT22;13779;-33.886;151.198;2024-03-02T03:04:54;23.80;99.90
25991;DHT22;13779;-33.886;151.198;2024-03-02T03:07:26;23.80;99.90
25991;DHT22;13779;-33.886;151.198;2024-03-02T03:09:57;23.80;99.90
25991;DHT22;13779;-33.886;151.198;2024-03-02T03:12:27;23.70;99.90
25991;DHT22;13779;-33.886;151.198;2024-03-02T03:14:59;23.70;99.90
25991;DHT22;13779;-33.886;151.198;2024-03-02T03:17:31;23.70;99.90
25991;DHT22;13779;-33.886;151.198;2024-03-02T03:20:02;23.60;99.90
25991;DHT22;13779;-33.886;151.198;2024-03-02T03:22:33;23.60;99.90
25991;DHT22;13779;-33.886;151.198;2024-03-02T03:25:04;23.50;99.90
25991;DHT22;13779;-33.886;151.198;2024-03-02T03:27:35;23.60;99.90
25991;DHT22;13779;-33.886;151.198;2024-03-02T03:30:06;23.60;99.90
25991;DHT22;13779;-33.886;151.198;2024-03-02T03:32:36;23.60;99.90
25991;DHT22;13779;-33.886;151.198;2024-03-02T03:35:07;23.50;99.90
25991;DHT22;13779;-33.886;151.198;2024-03-02T03:37:38;23.50;99.90
25991;DHT22;13779;-33.886;151.198;2024-03-02T03:40:09;23.60;99.90
25991;DHT22;13779;-33.886;151.198;2024-03-02T03:42:44;23.50;99.90
25991;DHT22;13779;-33.886;151.198;2024-03-02T03:45:14;23.60;99.90
25991;DHT22;13779;-33.886;151.198;2024-03-02T03:47:45;23.50;99.90
25991;DHT22;13779;-33.886;151.198;2024-03-02T03:50:16;23.50;99.90
25991;DHT22;13779;-33.886;151.198;2024-03-02T03:52:46;23.50;99.90
25991;DHT22;13779;-33.886;151.198;2024-03-02T03:55:16;23.50;99.90
25991;DHT22;13779;-33.886;151.198;2024-03-02T03:57:46;23.50;99.90
25991;DHT22;13779;-33.886;151.198;2024-03-02T04:00:16;23.50;99.90
25991;DHT22;13779;-33.886;151.198;2024-03-02T04:02:47;23.50;99.90
25991;DHT22;13779;-33.886;151.198;2024-03-02T04:05:17;23.50;99.90
25991;DHT22;13779;-33.886;151.198;2024-03-02T04:07:47;23.40;99.90
25991;DHT22;13779;-33.886;151.198;2024-03-02T04:10:17;23.50;99.90
25991;DHT22;13779;-33.886;151.198;2024-03-02T04:12:50;23.50;99.90
25991;DHT22;13779;-33.886;151.198;2024-03-02T04:15:20;23.50;99.90
25991;DHT22;13779;-33.886;151.198;2024-03-02T04:17:52;23.60;99.90
25991;DHT22;13779;-33.886;151.198;2024-03-02T04:20:22;23.70;99.90
25991;DHT22;13779;-33.886;151.198;2024-03-02T04:22:52;23.60;99.90
25991;DHT22;13779;-33.886;151.198;2024-03-02T04:25:22;23.70;99.90
25991;DHT22;13779;-33.886;151.198;2024-03-02T04:27:53;23.70;99.90
25991;DHT22;13779;-33.886;151.198;2024-03-02T04:30:23;23.80;99.90
25991;DHT22;13779;-33.886;151.198;2024-03-02T04:32:54;23.90;99.90
25991;DHT22;13779;-33.886;151.198;2024-03-02T04:35:25;23.90;99.90
25991;DHT22;13779;-33.886;151.198;2024-03-02T04:37:55;23.80;99.90
25991;DHT22;13779;-33.886;151.198;2024-03-02T04:40:25;23.90;99.90
25991;DHT22;13779;-33.886;151.198;2024-03-02T04:42:55;24.00;99.90
25991;DHT22;13779;-33.886;151.198;2024-03-02T04:45:26;24.10;99.90
25991;DHT22;13779;-33.886;151.198;2024-03-02T04:47:56;24.10;99.90
25991;DHT22;13779;-33.886;151.198;2024-03-02T04:50:28;24.10;99.90
25991;DHT22;13779;-33.886;151.198;2024-03-02T04:52:59;24.10;99.90
25991;DHT22;13779;-33.886;151.198;2024-03-02T04:55:29;24.20;99.90
25991;DHT22;13779;-33.886;151.198;2024-03-02T04:58:09;24.10;99.90
25991;DHT22;13779;-33.886;151.198;2024-03-02T05:00:39;24.10;99.90
25991;DHT22;13779;-33.886;151.198;2024-03-02T05:03:10;24.10;99.90
25991;DHT22;13779;-33.886;151.198;2024-03-02T05:05:40;24.10;99.90
25991;DHT22;13779;-33.886;151.198;2024-03-02T05:08:11;24.00;99.90
25991;DHT22;13779;-33.886;151.198;2024-03-02T05:10:42;24.00;99.90
25991;DHT22;13779;-33.886;151.198;2024-03-02T05:13:12;24.10;99.90
25991;DHT22;13779;-33.886;151.198;2024-03-02T05:15:43;24.10;99.90
25991;DHT22;13779;-33.886;151.198;2024-03-02T05:18:13;24.10;99.90
25991;DHT22;13779;-33.886;151.198;2024-03-02T05:20:44;24.00;99.90
25991;DHT22;13779;-33.886;151.198;2024-03-02T05:23:15;24.10;99.90
25991;DHT22;13779;-33.886;151.198;2024-03-02T05:25:46;24.00;99.90
25991;DHT22;13779;-33.886;151.198;2024-03-02T05:28:16;24.00;99.90
25991;DHT22;13779;-33.886;151.198;2024-03-02T05:30:47;24.00;99.90
25991;DHT22;13779;-33.886;151.198;2024-03-02T05:33:18;24.10;99.90
25991;DHT22;13779;-33.886;151.198;2024-03-02T05:35:49;24.10;99.90
25991;DHT22;13779;-33.886;151.198;2024-03-02T05:38:19;24.00;99.90
25991;DHT22;13779;-33.886;151.198;2024-03-02T05:40:51;24.10;99.90
25991;DHT22;13779;-33.886;151.198;2024-03-02T05:43:22;24.00;99.90
25991;DHT22;13779;-33.886;151.198;2024-03-02T05:45:52;24.00;99.90
25991;DHT22;13779;-33.886;151.198;2024-03-02T05:48:23;24.00;99.90
25991;DHT22;13779;-33.886;151.198;2024-03-02T05:50:54;24.00;99.90
25991;DHT22;13779;-33.886;151.198;2024-03-02T05:53:26;24.00;99.90
25991;DHT22;13779;-33.886;151.198;2024-03-02T05:55:56;24.00;99.90
25991;DHT22;13779;-33.886;151.198;2024-03-02T05:58:29;24.00;99.90
25991;DHT22;13779;-33.886;151.198;2024-03-02T06:01:18;24.10;99.90
25991;DHT22;13779;-33.886;151.198;2024-03-02T06:03:49;24.10;99.90
25991;DHT22;13779;-33.886;151.198;2024-03-02T06:06:19;24.10;99.90
25991;DHT22;13779;-33.886;151.198;2024-03-02T06:08:49;24.10;99.90
25991;DHT22;13779;-33.886;151.198;2024-03-02T06:11:20;24.00;99.90
25991;DHT22;13779;-33.886;151.198;2024-03-02T06:13:51;24.10;99.90
25991;DHT22;13779;-33.886;151.198;2024-03-02T06:16:22;24.10;99.90
25991;DHT22;13779;-33.886;151.198;2024-03-02T06:18:53;24.10;99.90
25991;DHT22;13779;-33.886;151.198;2024-03-02T06:21:23;24.10;99.90
25991;DHT22;13779;-33.886;151.198;2024-03-02T06:23:54;24.10;99.90
25991;DHT22;13779;-33.886;151.198;2024-03-02T06:26:24;24.10;99.90
25991;DHT22;13779;-33.886;151.198;2024-03-02T06:28:55;24.10;99.90
25991;DHT22;13779;-33.886;151.198;2024-03-02T06:31:26;24.10;99.90
25991;DHT22;13779;-33.886;151.198;2024-03-02T06:33:56;24.00;99.90
25991;DHT22;13779;-33.886;151.198;2024-03-02T06:36:27;24.00;99.90
25991;DHT22;13779;-33.886;151.198;2024-03-02T06:38:58;24.00;99.90
25991;DHT22;13779;-33.886;151.198;2024-03-02T06:41:29;24.00;99.90
25991;DHT22;13779;-33.886;151.198;2024-03-02T06:44:00;24.00;99.90
25991;DHT22;13779;-33.886;151.198;2024-03-02T06:46:31;24.00;99.90
25991;DHT22;13779;-33.886;151.198;2024-03-02T06:49:02;24.00;99.90
25991;DHT22;13779;-33.886;151.198;2024-03-02T06:51:35;24.00;99.90
25991;DHT22;13779;-33.886;151.198;2024-03-02T06:54:05;23.90;99.90
25991;DHT22;13779;-33.886;151.198;2024-03-02T06:56:36;23.80;99.90
25991;DHT22;13779;-33.886;151.198;2024-03-02T06:59:08;23.80;99.90
25991;DHT22;13779;-33.886;151.198;2024-03-02T07:01:39;23.70;99.90
25991;DHT22;13779;-33.886;151.198;2024-03-02T07:04:10;23.70;99.90
25991;DHT22;13779;-33.886;151.198;2024-03-02T07:06:41;23.70;99.90
25991;DHT22;13779;-33.886;151.198;2024-03-02T07:09:11;23.60;99.90
25991;DHT22;13779;-33.886;151.198;2024-03-02T07:11:42;23.70;99.90
25991;DHT22;13779;-33.886;151.198;2024-03-02T07:14:14;23.70;99.90
25991;DHT22;13779;-33.886;151.198;2024-03-02T07:16:45;23.60;99.90
25991;DHT22;13779;-33.886;151.198;2024-03-02T07:19:15;23.60;99.90
25991;DHT22;13779;-33.886;151.198;2024-03-02T07:21:46;23.60;99.90
25991;DHT22;13779;-33.886;151.198;2024-03-02T07:24:16;23.60;99.90
25991;DHT22;13779;-33.886;151.198;2024-03-02T07:26:47;23.60;99.90
25991;DHT22;13779;-33.886;151.198;2024-03-02T07:29:20;23.50;99.90
25991;DHT22;13779;-33.886;151.198;2024-03-02T07:31:51;23.50;99.90
25991;DHT22;13779;-33.886;151.198;2024-03-02T07:34:22;23.70;99.90
25991;DHT22;13779;-33.886;151.198;2024-03-02T07:36:53;23.70;99.90
25991;DHT22;13779;-33.886;151.198;2024-03-02T07:39:28;23.70;99.90
25991;DHT22;13779;-33.886;151.198;2024-03-02T07:42:02;23.60;99.90
25991;DHT22;13779;-33.886;151.198;2024-03-02T07:44:32;23.70;99.90
25991;DHT22;13779;-33.886;151.198;2024-03-02T07:47:04;23.70;99.90
25991;DHT22;13779;-33.886;151.198;2024-03-02T07:49:36;23.60;99.90
25991;DHT22;13779;-33.886;151.198;2024-03-02T07:52:07;23.70;99.90
25991;DHT22;13779;-33.886;151.198;2024-03-02T07:54:37;23.60;99.90
25991;DHT22;13779;-33.886;151.198;2024-03-02T07:57:08;23.70;99.90
25991;DHT22;13779;-33.886;151.198;2024-03-02T07:59:38;23.70;99.90
25991;DHT22;13779;-33.886;151.198;2024-03-02T08:02:09;23.90;99.90
25991;DHT22;13779;-33.886;151.198;2024-03-02T08:04:40;23.80;99.90
25991;DHT22;13779;-33.886;151.198;2024-03-02T08:07:11;23.80;99.90
25991;DHT22;13779;-33.886;151.198;2024-03-02T08:09:42;23.70;99.90
25991;DHT22;13779;-33.886;151.198;2024-03-02T08:12:13;23.70;99.90
25991;DHT22;13779;-33.886;151.198;2024-03-02T08:14:44;23.80;99.90
25991;DHT22;13779;-33.886;151.198;2024-03-02T08:17:14;23.70;99.90
25991;DHT22;13779;-33.886;151.198;2024-03-02T08:19:45;23.80;99.90
25991;DHT22;13779;-33.886;151.198;2024-03-02T08:22:18;23.70;99.90
25991;DHT22;13779;-33.886;151.198;2024-03-02T08:24:49;23.80;99.90
25991;DHT22;13779;-33.886;151.198;2024-03-02T08:27:19;23.90;99.90
25991;DHT22;13779;-33.886;151.198;2024-03-02T08:29:50;23.80;99.90
25991;DHT22;13779;-33.886;151.198;2024-03-02T08:32:21;23.70;99.90
25991;DHT22;13779;-33.886;151.198;2024-03-02T08:34:52;23.70;99.90
25991;DHT22;13779;-33.886;151.198;2024-03-02T08:37:23;23.70;99.90
25991;DHT22;13779;-33.886;151.198;2024-03-02T08:39:55;23.70;99.90
25991;DHT22;13779;-33.886;151.198;2024-03-02T08:42:28;23.70;99.90
25991;DHT22;13779;-33.886;151.198;2024-03-02T08:44:59;23.70;99.90
25991;DHT22;13779;-33.886;151.198;2024-03-02T08:47:31;23.70;99.90
25991;DHT22;13779;-33.886;151.198;2024-03-02T08:50:02;23.60;99.90
25991;DHT22;13779;-33.886;151.198;2024-03-02T08:52:35;23.60;99.90
25991;DHT22;13779;-33.886;151.198;2024-03-02T08:55:06;23.70;99.90
25991;DHT22;13779;-33.886;151.198;2024-03-02T08:57:37;23.60;99.90
25991;DHT22;13779;-33.886;151.198;2024-03-02T09:00:08;23.60;99.90
25991;DHT22;13779;-33.886;151.198;2024-03-02T09:02:38;23.60;99.90
25991;DHT22;13779;-33.886;151.198;2024-03-02T09:05:09;23.60;99.90
25991;DHT22;13779;-33.886;151.198;2024-03-02T09:07:39;23.60;99.90
25991;DHT22;13779;-33.886;151.198;2024-03-02T09:10:10;23.90;99.90
25991;DHT22;13779;-33.886;151.198;2024-03-02T09:12:41;23.70;99.90
25991;DHT22;13779;-33.886;151.198;2024-03-02T09:15:11;23.70;99.90
25991;DHT22;13779;-33.886;151.198;2024-03-02T09:17:42;23.60;99.90
25991;DHT22;13779;-33.886;151.198;2024-03-02T09:20:13;23.60;99.90
25991;DHT22;13779;-33.886;151.198;2024-03-02T09:22:43;23.60;99.90
25991;DHT22;13779;-33.886;151.198;2024-03-02T09:25:17;23.60;99.90
25991;DHT22;13779;-33.886;151.198;2024-03-02T09:27:47;23.50;99.90
25991;DHT22;13779;-33.886;151.198;2024-03-02T09:30:18;23.60;99.90
25991;DHT22;13779;-33.886;151.198;2024-03-02T09:32:48;23.60;99.90
25991;DHT22;13779;-33.886;151.198;2024-03-02T09:35:19;23.60;99.90
25991;DHT22;13779;-33.886;151.198;2024-03-02T09:37:50;23.60;99.90
25991;DHT22;13779;-33.886;151.198;2024-03-02T09:40:22;23.60;99.90
25991;DHT22;13779;-33.886;151.198;2024-03-02T09:42:53;23.50;99.90
25991;DHT22;13779;-33.886;151.198;2024-03-02T09:45:26;23.50;99.90
25991;DHT22;13779;-33.886;151.198;2024-03-02T09:47:57;23.60;99.90
25991;DHT22;13779;-33.886;151.198;2024-03-02T09:50:28;23.70;99.90
25991;DHT22;13779;-33.886;151.198;2024-03-02T09:52:59;23.50;99.90
25991;DHT22;13779;-33.886;151.198;2024-03-02T09:55:30;23.60;99.90
25991;DHT22;13779;-33.886;151.198;2024-03-02T09:58:01;23.60;99.90
25991;DHT22;13779;-33.886;151.198;2024-03-02T10:00:31;23.60;99.90
25991;DHT22;13779;-33.886;151.198;2024-03-02T10:03:03;23.70;99.90
25991;DHT22;13779;-33.886;151.198;2024-03-02T10:05:35;23.60;99.90
25991;DHT22;13779;-33.886;151.198;2024-03-02T10:08:05;23.60;99.90
25991;DHT22;13779;-33.886;151.198;2024-03-02T10:10:38;23.60;99.90
25991;DHT22;13779;-33.886;151.198;2024-03-02T10:13:14;23.60;99.90
25991;DHT22;13779;-33.886;151.198;2024-03-02T10:15:46;23.50;99.90
25991;DHT22;13779;-33.886;151.198;2024-03-02T10:18:27;23.50;99.90
25991;DHT22;13779;-33.886;151.198;2024-03-02T10:21:14;23.50;99.90
25991;DHT22;13779;-33.886;151.198;2024-03-02T10:23:45;23.50;99.90
25991;DHT22;13779;-33.886;151.198;2024-03-02T10:26:18;23.50;99.90
25991;DHT22;13779;-33.886;151.198;2024-03-02T10:28:49;23.60;99.90
25991;DHT22;13779;-33.886;151.198;2024-03-02T10:31:22;23.50;99.90
25991;DHT22;13779;-33.886;151.198;2024-03-02T10:33:59;23.40;99.90
25991;DHT22;13779;-33.886;151.198;2024-03-02T10:36:30;23.40;99.90
25991;DHT22;13779;-33.886;151.198;2024-03-02T10:39:05;23.50;99.90
25991;DHT22;13779;-33.886;151.198;2024-03-02T10:41:37;23.50;99.90
25991;DHT22;13779;-33.886;151.198;2024-03-02T10:44:10;23.50;99.90
25991;DHT22;13779;-33.886;151.198;2024-03-02T10:46:43;23.50;99.90
25991;DHT22;13779;-33.886;151.198;2024-03-02T10:49:14;23.40;99.90
25991;DHT22;13779;-33.886;151.198;2024-03-02T10:51:45;23.40;99.90
25991;DHT22;13779;-33.886;151.198;2024-03-02T10:54:15;23.40;99.90
25991;DHT22;13779;-33.886;151.198;2024-03-02T10:56:47;23.50;99.90
25991;DHT22;13779;-33.886;151.198;2024-03-02T11:02:03;23.40;99.90
25991;DHT22;13779;-33.886;151.198;2024-03-02T11:04:37;23.50;99.90
25991;DHT22;13779;-33.886;151.198;2024-03-02T11:07:10;23.50;99.90
25991;DHT22;13779;-33.886;151.198;2024-03-02T11:09:57;23.40;99.90
25991;DHT22;13779;-33.886;151.198;2024-03-02T11:12:28;23.40;99.90
25991;DHT22;13779;-33.886;151.198;2024-03-02T11:14:58;23.40;99.90
25991;DHT22;13779;-33.886;151.198;2024-03-02T11:17:30;23.40;99.90
25991;DHT22;13779;-33.886;151.198;2024-03-02T11:20:00;23.40;99.90
25991;DHT22;13779;-33.886;151.198;2024-03-02T11:22:32;23.40;99.90
25991;DHT22;13779;-33.886;151.198;2024-03-02T11:25:03;23.40;99.90
25991;DHT22;13779;-33.886;151.198;2024-03-02T11:33:03;23.50;99.90
25991;DHT22;13779;-33.886;151.198;2024-03-02T11:35:43;23.50;99.90
25991;DHT22;13779;-33.886;151.198;2024-03-02T11:38:15;23.50;99.90
25991;DHT22;13779;-33.886;151.198;2024-03-02T11:40:45;23.50;99.90
25991;DHT22;13779;-33.886;151.198;2024-03-02T11:43:15;23.50;99.90
25991;DHT22;13779;-33.886;151.198;2024-03-02T11:45:45;23.50;99.90
25991;DHT22;13779;-33.886;151.198;2024-03-02T11:48:16;23.50;99.90
25991;DHT22;13779;-33.886;151.198;2024-03-02T11:50:49;23.50;99.90
25991;DHT22;13779;-33.886;151.198;2024-03-02T11:53:21;23.50;99.90
25991;DHT22;13779;-33.886;151.198;2024-03-02T11:55:53;23.50;99.90
25991;DHT22;13779;-33.886;151.198;2024-03-02T11:58:25;23.40;99.90
25991;DHT22;13779;-33.886;151.198;2024-03-02T12:00:57;23.40;99.90
25991;DHT22;13779;-33.886;151.198;2024-03-02T12:03:28;23.40;99.90
25991;DHT22;13779;-33.886;151.198;2024-03-02T12:05:58;23.40;99.90
25991;DHT22;13779;-33.886;151.198;2024-03-02T12:08:29;23.40;99.90
25991;DHT22;13779;-33.886;151.198;2024-03-02T12:11:00;23.40;99.90
25991;DHT22;13779;-33.886;151.198;2024-03-02T12:13:32;23.50;99.90
25991;DHT22;13779;-33.886;151.198;2024-03-02T12:16:03;23.40;99.90
25991;DHT22;13779;-33.886;151.198;2024-03-02T12:18:34;23.40;99.90
25991;DHT22;13779;-33.886;151.198;2024-03-02T12:21:04;23.40;99.90
25991;DHT22;13779;-33.886;151.198;2024-03-02T12:23:38;23.30;99.90
25991;DHT22;13779;-33.886;151.198;2024-03-02T12:26:08;23.40;99.90
25991;DHT22;13779;-33.886;151.198;2024-03-02T12:28:38;23.40;99.90
25991;DHT22;13779;-33.886;151.198;2024-03-02T12:31:09;23.50;99.90
25991;DHT22;13779;-33.886;151.198;2024-03-02T12:33:39;23.50;99.90
25991;DHT22;13779;-33.886;151.198;2024-03-02T12:36:12;23.50;99.90
25991;DHT22;13779;-33.886;151.198;2024-03-02T12:38:46;23.50;99.90
25991;DHT22;13779;-33.886;151.198;2024-03-02T12:41:16;23.60;99.90
25991;DHT22;13779;-33.886;151.198;2024-03-02T12:43:47;23.50;99.90
25991;DHT22;13779;-33.886;151.198;2024-03-02T12:46:17;23.50;99.90
25991;DHT22;13779;-33.886;151.198;2024-03-02T12:48:47;23.60;99.90
25991;DHT22;13779;-33.886;151.198;2024-03-02T12:51:18;23.60;99.90
25991;DHT22;13779;-33.886;151.198;2024-03-02T12:54:08;23.60;99.90
25991;DHT22;13779;-33.886;151.198;2024-03-02T12:56:40;23.50;99.90
25991;DHT22;13779;-33.886;151.198;2024-03-02T12:59:23;23.50;99.90
25991;DHT22;13779;-33.886;151.198;2024-03-02T13:01:56;23.50;99.90
25991;DHT22;13779;-33.886;151.198;2024-03-02T13:04:28;23.50;99.90
25991;DHT22;13779;-33.886;151.198;2024-03-02T13:06:59;23.40;99.90
25991;DHT22;13779;-33.886;151.198;2024-03-02T13:09:31;23.50;99.90
25991;DHT22;13779;-33.886;151.198;2024-03-02T13:12:03;23.50;99.90
25991;DHT22;13779;-33.886;151.198;2024-03-02T13:14:33;23.50;99.90
25991;DHT22;13779;-33.886;151.198;2024-03-02T13:17:04;23.50;99.90
25991;DHT22;13779;-33.886;151.198;2024-03-02T13:19:35;23.50;99.90
25991;DHT22;13779;-33.886;151.198;2024-03-02T13:22:05;23.50;99.90
25991;DHT22;13779;-33.886;151.198;2024-03-02T13:24:35;23.50;99.90
25991;DHT22;13779;-33.886;151.198;2024-03-02T13:27:06;23.50;99.90
25991;DHT22;13779;-33.886;151.198;2024-03-02T13:29:36;23.50;99.90
25991;DHT22;13779;-33.886;151.198;2024-03-02T13:32:07;23.50;99.90
25991;DHT22;13779;-33.886;151.198;2024-03-02T13:34:39;23.40;99.90
25991;DHT22;13779;-33.886;151.198;2024-03-02T13:37:09;23.40;99.90
25991;DHT22;13779;-33.886;151.198;2024-03-02T13:39:40;23.50;99.90
25991;DHT22;13779;-33.886;151.198;2024-03-02T13:42:11;23.40;99.90
25991;DHT22;13779;-33.886;151.198;2024-03-02T13:44:46;23.30;99.90
25991;DHT22;13779;-33.886;151.198;2024-03-02T13:47:19;23.30;99.90
25991;DHT22;13779;-33.886;151.198;2024-03-02T13:49:51;23.30;99.90
25991;DHT22;13779;-33.886;151.198;2024-03-02T13:52:21;23.30;99.90
25991;DHT22;13779;-33.886;151.198;2024-03-02T13:54:51;23.20;99.90
25991;DHT22;13779;-33.886;151.198;2024-03-02T13:57:25;23.20;99.90
25991;DHT22;13779;-33.886;151.198;2024-03-02T13:59:56;23.20;99.90
25991;DHT22;13779;-33.886;151.198;2024-03-02T14:02:26;23.20;99.90
25991;DHT22;13779;-33.886;151.198;2024-03-02T14:04:57;23.20;99.90
25991;DHT22;13779;-33.886;151.198;2024-03-02T14:07:27;23.20;99.90
25991;DHT22;13779;-33.886;151.198;2024-03-02T14:09:58;23.20;99.90
25991;DHT22;13779;-33.886;151.198;2024-03-02T14:12:28;23.20;99.90
25991;DHT22;13779;-33.886;151.198;2024-03-02T14:15:00;23.20;99.90
25991;DHT22;13779;-33.886;151.198;2024-03-02T14:17:32;23.20;99.90
25991;DHT22;13779;-33.886;151.198;2024-03-02T14:20:02;23.10;99.90
25991;DHT22;13779;-33.886;151.198;2024-03-02T14:22:34;23.10;99.90
25991;DHT22;13779;-33.886;151.198;2024-03-02T14:25:07;23.00;99.90
25991;DHT22;13779;-33.886;151.198;2024-03-02T14:27:38;22.90;99.90
25991;DHT22;13779;-33.886;151.198;2024-03-02T14:30:17;22.90;99.90
25991;DHT22;13779;-33.886;151.198;2024-03-02T14:32:48;22.70;99.90
25991;DHT22;13779;-33.886;151.198;2024-03-02T14:35:19;22.70;99.90
25991;DHT22;13779;-33.886;151.198;2024-03-02T14:37:52;22.70;99.90
25991;DHT22;13779;-33.886;151.198;2024-03-02T14:40:23;22.70;99.90
25991;DHT22;13779;-33.886;151.198;2024-03-02T14:42:56;22.70;99.90
25991;DHT22;13779;-33.886;151.198;2024-03-02T14:45:27;22.70;99.90
25991;DHT22;13779;-33.886;151.198;2024-03-02T14:47:58;22.60;99.90
25991;DHT22;13779;-33.886;151.198;2024-03-02T14:50:31;22.60;99.90
25991;DHT22;13779;-33.886;151.198;2024-03-02T14:53:03;22.70;99.90
25991;DHT22;13779;-33.886;151.198;2024-03-02T14:55:36;22.70;99.90
25991;DHT22;13779;-33.886;151.198;2024-03-02T14:58:07;22.70;99.90
25991;DHT22;13779;-33.886;151.198;2024-03-02T15:00:38;22.60;99.90
25991;DHT22;13779;-33.886;151.198;2024-03-02T15:03:08;22.60;99.90
25991;DHT22;13779;-33.886;151.198;2024-03-02T15:05:39;22.60;99.90
25991;DHT22;13779;-33.886;151.198;2024-03-02T15:08:10;22.60;99.90
25991;DHT22;13779;-33.886;151.198;2024-03-02T15:10:40;22.60;99.90
25991;DHT22;13779;-33.886;151.198;2024-03-02T15:13:12;22.50;99.90
25991;DHT22;13779;-33.886;151.198;2024-03-02T15:15:43;22.50;99.90
25991;DHT22;13779;-33.886;151.198;2024-03-02T15:18:14;22.50;99.90
25991;DHT22;13779;-33.886;151.198;2024-03-02T15:20:45;22.50;99.90
25991;DHT22;13779;-33.886;151.198;2024-03-02T15:23:16;22.50;99.90